Time;durP1;ratioP1;P1;durP2;ratioP2;P2;SDS_P1;SDS_P2;PMS_P1;PMS_P2;Temp;Humidity;BMP_temperature;BMP_pressure;BME280_temperature;BME280_humidity;BME280_pressure;Samples;Min_cycle;Max_cycle;Signal;HPM_P1;HPM_P2
2023/05/26 00:01:46;;;;;;;13.15;9.25;;;;;;;;;;5064013;28;20833;-74
2023/05/26 00:04:16;;;;;;;10.98;8.85;;;;;;;;;;5062178;28;20024;-75
2023/05/26 00:06:43;;;;;;;11.48;9.48;;;;;;;;;;5064116;28;20024;-74
2023/05/26 00:09:09;;;;;;;10.75;9.15;;;;;;;;;;5061377;28;20086;-75
2023/05/26 00:11:35;;;;;;;15.02;8.77;;;;;;;;;;5062166;28;20072;-74
2023/05/26 00:14:01;;;;;;;12.05;9.02;;;;;;;;;;5063284;28;20025;-74
2023/05/26 00:16:28;;;;;;;13.10;8.57;;;;;;;;;;5060985;28;20033;-75
2023/05/26 00:18:54;;;;;;;10.48;8.45;;;;;;;;;;5060661;28;20506;-75
2023/05/26 00:21:20;;;;;;;11.25;9.15;;;;;;;;;;5067048;28;20028;-75
2023/05/26 00:23:46;;;;;;;12.73;9.00;;;;;;;;;;5062683;28;20031;-75
2023/05/26 00:26:12;;;;;;;11.13;9.18;;;;;;;;;;5071541;28;20034;-75
2023/05/26 00:28:39;;;;;;;10.05;7.95;;;;;;;;;;5064098;28;20043;-74
2023/05/26 00:31:05;;;;;;;12.20;8.27;;;;;;;;;;5065596;28;20138;-74
2023/05/26 00:33:32;;;;;;;13.68;8.10;;;;;;;;;;5061488;28;20036;-75
2023/05/26 00:35:58;;;;;;;9.77;8.30;;;;;;;;;;5065517;28;20044;-74
2023/05/26 00:38:24;;;;;;;8.95;8.05;;;;;;;;;;5064967;28;20029;-75
2023/05/26 00:40:51;;;;;;;9.57;8.48;;;;;;;;;;5066370;28;20503;-74
2023/05/26 00:43:17;;;;;;;12.13;8.65;;;;;;;;;;5059941;28;20111;-75
2023/05/26 00:45:43;;;;;;;11.38;8.82;;;;;;;;;;5066042;28;20020;-74
2023/05/26 00:48:09;;;;;;;13.45;9.63;;;;;;;;;;5061241;28;20112;-75
2023/05/26 00:50:35;;;;;;;10.52;8.82;;;;;;;;;;5066346;28;20135;-74
2023/05/26 00:53:02;;;;;;;9.15;8.05;;;;;;;;;;5063234;28;20397;-74
2023/05/26 00:55:28;;;;;;;11.40;8.30;;;;;;;;;;5062540;28;20028;-74
2023/05/26 00:57:55;;;;;;;13.57;9.32;;;;;;;;;;5064075;28;20025;-74
2023/05/26 01:00:22;;;;;;;8.98;8.07;;;;;;;;;;5065603;28;20136;-74
2023/05/26 01:02:49;;;;;;;10.40;8.32;;;;;;;;;;5069008;28;20055;-74
2023/05/26 01:05:16;;;;;;;11.35;7.93;;;;;;;;;;5062212;28;20066;-74
2023/05/26 01:07:43;;;;;;;12.02;8.32;;;;;;;;;;5062018;28;20118;-74
2023/05/26 01:10:10;;;;;;;11.15;8.20;;;;;;;;;;5064649;28;20090;-75
2023/05/26 01:12:37;;;;;;;8.88;7.70;;;;;;;;;;5061813;28;20508;-74
2023/05/26 01:15:12;;;;;;;10.50;8.20;;;;;;;;;;5066438;28;20039;-74
2023/05/26 01:17:44;;;;;;;11.13;8.52;;;;;;;;;;5062076;28;20060;-75
2023/05/26 01:20:13;;;;;;;12.88;8.13;;;;;;;;;;5065769;28;20031;-74
2023/05/26 01:22:42;;;;;;;13.68;8.65;;;;;;;;;;5064503;28;20026;-75
2023/05/26 01:25:11;;;;;;;12.43;8.13;;;;;;;;;;5072062;28;20020;-74
2023/05/26 01:27:46;;;;;;;10.45;8.02;;;;;;;;;;5062656;28;20048;-74
2023/05/26 01:30:13;;;;;;;11.55;8.70;;;;;;;;;;5067613;28;20067;-74
2023/05/26 01:32:46;;;;;;;10.13;8.98;;;;;;;;;;5063647;28;20893;-75
2023/05/26 01:35:12;;;;;;;11.00;8.55;;;;;;;;;;5069184;28;20142;-74
2023/05/26 01:37:38;;;;;;;12.20;9.20;;;;;;;;;;5068727;28;20021;-74
2023/05/26 01:40:06;;;;;;;10.57;9.10;;;;;;;;;;5069337;28;20016;-74
2023/05/26 01:42:34;;;;;;;12.73;9.35;;;;;;;;;;5063715;28;20032;-75
2023/05/26 01:45:17;;;;;;;11.60;8.93;;;;;;;;;;5067585;28;20028;-74
2023/05/26 01:47:47;;;;;;;10.55;8.88;;;;;;;;;;5065327;28;20043;-75
2023/05/26 01:50:13;;;;;;;12.77;9.00;;;;;;;;;;5069042;28;20021;-74
2023/05/26 01:52:42;;;;;;;9.63;8.35;;;;;;;;;;5066212;28;20025;-74
2023/05/26 01:55:11;;;;;;;9.85;8.85;;;;;;;;;;5067425;28;20024;-74
2023/05/26 01:57:37;;;;;;;9.80;8.52;;;;;;;;;;5063484;28;20111;-75
2023/05/26 02:00:04;;;;;;;12.73;9.13;;;;;;;;;;5069063;28;20024;-74
2023/05/26 02:02:30;;;;;;;15.98;9.10;;;;;;;;;;5068103;28;20060;-75
2023/05/26 02:04:56;;;;;;;10.88;8.38;;;;;;;;;;5071908;28;20025;-74
2023/05/26 02:07:22;;;;;;;11.75;8.90;;;;;;;;;;5064606;28;20037;-74
2023/05/26 02:09:48;;;;;;;10.65;8.73;;;;;;;;;;5073356;28;20028;-74
2023/05/26 02:12:15;;;;;;;12.65;9.32;;;;;;;;;;5067988;28;20028;-74
2023/05/26 02:14:41;;;;;;;13.45;9.18;;;;;;;;;;5075892;28;20040;-74
2023/05/26 02:17:08;;;;;;;11.02;8.70;;;;;;;;;;5066984;28;20029;-74
2023/05/26 02:19:34;;;;;;;11.23;8.70;;;;;;;;;;5063830;28;20573;-74
2023/05/26 02:22:00;;;;;;;9.95;8.88;;;;;;;;;;5058523;28;20035;-74
2023/05/26 02:24:26;;;;;;;10.98;9.60;;;;;;;;;;5069281;28;20370;-74
2023/05/26 02:26:52;;;;;;;9.68;8.63;;;;;;;;;;5074776;28;20028;-74
2023/05/26 02:29:19;;;;;;;9.57;8.32;;;;;;;;;;5070254;28;20041;-74
2023/05/26 02:31:45;;;;;;;10.25;8.85;;;;;;;;;;5070798;28;20040;-74
2023/05/26 02:34:11;;;;;;;12.18;9.63;;;;;;;;;;5063539;28;20024;-74
2023/05/26 02:36:37;;;;;;;13.18;8.85;;;;;;;;;;5068930;28;20017;-75
2023/05/26 02:39:03;;;;;;;11.68;8.68;;;;;;;;;;5071343;28;20025;-75
2023/05/26 02:41:30;;;;;;;14.18;9.02;;;;;;;;;;5069643;28;20101;-74
2023/05/26 02:43:56;;;;;;;12.70;8.27;;;;;;;;;;5068701;28;20024;-74
2023/05/26 02:46:22;;;;;;;14.95;8.70;;;;;;;;;;5069957;28;20036;-75
2023/05/26 02:48:48;;;;;;;8.90;8.00;;;;;;;;;;5065309;28;20028;-75
2023/05/26 02:51:14;;;;;;;11.82;7.60;;;;;;;;;;5070295;28;20115;-75
2023/05/26 02:53:41;;;;;;;7.90;7.10;;;;;;;;;;5066080;28;20562;-74
2023/05/26 02:56:07;;;;;;;10.88;6.95;;;;;;;;;;5067577;28;20111;-74
2023/05/26 02:58:33;;;;;;;9.55;7.68;;;;;;;;;;5064227;28;20058;-74
2023/05/26 03:00:59;;;;;;;8.48;7.57;;;;;;;;;;5069023;28;20037;-74
2023/05/26 03:03:26;;;;;;;11.23;7.03;;;;;;;;;;5066249;28;20111;-74
2023/05/26 03:05:52;;;;;;;8.52;7.30;;;;;;;;;;5069720;28;21402;-74
2023/05/26 03:08:18;;;;;;;10.90;7.72;;;;;;;;;;5068479;28;20055;-74
2023/05/26 03:10:44;;;;;;;10.20;8.00;;;;;;;;;;5066758;28;20028;-74
2023/05/26 03:13:10;;;;;;;12.07;7.32;;;;;;;;;;5064625;28;20027;-74
2023/05/26 03:15:37;;;;;;;10.43;7.65;;;;;;;;;;5065700;28;20028;-75
2023/05/26 03:18:03;;;;;;;10.63;7.20;;;;;;;;;;5058613;28;20029;-75
2023/05/26 03:20:30;;;;;;;8.73;7.57;;;;;;;;;;5064327;28;20016;-75
2023/05/26 03:22:56;;;;;;;12.13;7.50;;;;;;;;;;5061859;28;20057;-74
2023/05/26 03:25:22;;;;;;;8.65;7.43;;;;;;;;;;5068720;28;20027;-74
2023/05/26 03:27:49;;;;;;;10.77;7.43;;;;;;;;;;5062363;28;20045;-75
2023/05/26 03:30:15;;;;;;;15.05;7.25;;;;;;;;;;5067167;28;20040;-74
2023/05/26 03:32:41;;;;;;;11.77;7.68;;;;;;;;;;5063793;28;20028;-74
2023/05/26 03:35:08;;;;;;;10.23;7.72;;;;;;;;;;5067146;28;20118;-74
2023/05/26 03:37:34;;;;;;;9.63;7.93;;;;;;;;;;5061008;28;20025;-75
2023/05/26 03:40:00;;;;;;;10.13;7.45;;;;;;;;;;5060523;28;20805;-75
2023/05/26 03:42:26;;;;;;;9.32;6.78;;;;;;;;;;5058621;28;20099;-74
2023/05/26 03:44:52;;;;;;;7.78;6.25;;;;;;;;;;5063988;28;20050;-75
2023/05/26 03:47:18;;;;;;;9.80;6.28;;;;;;;;;;5061501;28;20048;-74
2023/05/26 03:49:45;;;;;;;7.40;5.85;;;;;;;;;;5064870;28;20089;-74
2023/05/26 03:52:11;;;;;;;10.57;6.35;;;;;;;;;;5061622;28;20029;-74
2023/05/26 03:54:37;;;;;;;7.28;6.03;;;;;;;;;;5064347;28;20020;-74
2023/05/26 03:57:03;;;;;;;7.00;5.93;;;;;;;;;;5063777;28;20028;-74
2023/05/26 03:59:30;;;;;;;7.28;5.85;;;;;;;;;;5064390;28;20094;-74
2023/05/26 04:01:56;;;;;;;7.72;5.95;;;;;;;;;;5060886;28;20051;-74
2023/05/26 04:04:22;;;;;;;11.90;6.53;;;;;;;;;;5060686;28;20044;-75
2023/05/26 04:06:48;;;;;;;8.18;6.38;;;;;;;;;;5058795;28;20055;-75
2023/05/26 04:09:14;;;;;;;7.97;6.75;;;;;;;;;;5060258;28;20036;-74
2023/05/26 04:11:40;;;;;;;16.05;6.90;;;;;;;;;;5062774;28;20032;-75
2023/05/26 04:14:07;;;;;;;8.55;6.38;;;;;;;;;;5059854;28;20025;-75
2023/05/26 04:16:33;;;;;;;11.57;6.53;;;;;;;;;;5059003;28;20039;-74
2023/05/26 04:18:59;;;;;;;8.93;8.00;;;;;;;;;;5057886;28;20353;-74
2023/05/26 04:21:26;;;;;;;10.27;6.45;;;;;;;;;;5066619;28;20064;-74
2023/05/26 04:23:52;;;;;;;7.88;6.30;;;;;;;;;;5057243;28;20085;-74
2023/05/26 04:26:21;;;;;;;9.80;6.47;;;;;;;;;;5060710;28;20037;-74
2023/05/26 04:28:48;;;;;;;10.20;6.60;;;;;;;;;;5059401;28;20206;-74
2023/05/26 04:31:17;;;;;;;9.07;6.47;;;;;;;;;;5054139;28;20008;-74
2023/05/26 04:33:46;;;;;;;9.63;6.45;;;;;;;;;;5059126;28;20039;-74
2023/05/26 04:36:16;;;;;;;11.18;5.85;;;;;;;;;;5060846;28;20027;-75
2023/05/26 04:38:45;;;;;;;7.00;5.88;;;;;;;;;;5058977;28;20029;-74
2023/05/26 04:41:11;;;;;;;11.25;6.85;;;;;;;;;;5061247;28;20060;-74
2023/05/26 04:43:40;;;;;;;10.10;6.05;;;;;;;;;;5059552;28;20025;-75
2023/05/26 04:46:08;;;;;;;7.70;5.90;;;;;;;;;;5061717;28;20536;-75
2023/05/26 04:48:36;;;;;;;9.90;5.82;;;;;;;;;;5057685;28;20262;-74
2023/05/26 04:51:02;;;;;;;12.77;6.35;;;;;;;;;;5061255;28;20017;-75
2023/05/26 04:53:28;;;;;;;8.98;6.25;;;;;;;;;;5058289;28;20138;-75
2023/05/26 04:55:54;;;;;;;12.45;6.70;;;;;;;;;;5060915;28;20032;-74
2023/05/26 04:58:20;;;;;;;8.25;6.45;;;;;;;;;;5063421;28;20037;-75
2023/05/26 05:00:46;;;;;;;8.82;7.13;;;;;;;;;;5063338;28;20036;-75
2023/05/26 05:03:13;;;;;;;8.82;5.95;;;;;;;;;;5062685;28;20057;-75
2023/05/26 05:05:39;;;;;;;8.27;6.03;;;;;;;;;;5063272;28;20085;-75
2023/05/26 05:08:05;;;;;;;8.50;6.53;;;;;;;;;;5063188;28;20032;-74
2023/05/26 05:10:31;;;;;;;7.05;6.05;;;;;;;;;;5070640;28;20060;-75
2023/05/26 05:12:57;;;;;;;8.38;6.22;;;;;;;;;;5056759;28;20112;-75
2023/05/26 05:15:23;;;;;;;7.95;6.07;;;;;;;;;;5064332;28;20078;-75
2023/05/26 05:17:50;;;;;;;8.73;6.10;;;;;;;;;;5059718;28;20536;-75
2023/05/26 05:20:16;;;;;;;9.18;6.22;;;;;;;;;;5063730;28;20025;-74
2023/05/26 05:22:43;;;;;;;7.70;5.72;;;;;;;;;;5059909;28;20514;-75
2023/05/26 05:25:09;;;;;;;8.38;6.55;;;;;;;;;;5062451;28;20013;-74
2023/05/26 05:27:35;;;;;;;10.18;6.50;;;;;;;;;;5064451;28;20027;-75
2023/05/26 05:30:02;;;;;;;14.05;7.35;;;;;;;;;;5064390;28;20576;-75
2023/05/26 05:32:28;;;;;;;9.18;7.30;;;;;;;;;;5065720;28;20468;-75
2023/05/26 05:34:55;;;;;;;17.20;8.02;;;;;;;;;;5057561;28;20514;-75
2023/05/26 05:37:21;;;;;;;19.25;8.80;;;;;;;;;;5065054;28;20028;-74
2023/05/26 05:39:47;;;;;;;20.42;8.55;;;;;;;;;;5061360;28;20020;-75
2023/05/26 05:42:13;;;;;;;15.13;7.30;;;;;;;;;;5062787;28;20420;-74
2023/05/26 05:44:39;;;;;;;12.38;8.38;;;;;;;;;;5065494;28;20358;-74
2023/05/26 05:47:06;;;;;;;10.75;7.95;;;;;;;;;;5063178;28;20468;-75
2023/05/26 05:49:32;;;;;;;13.80;8.38;;;;;;;;;;5063435;28;20055;-75
2023/05/26 05:51:58;;;;;;;10.90;7.30;;;;;;;;;;5063985;28;20021;-75
2023/05/26 05:54:24;;;;;;;9.05;6.80;;;;;;;;;;5066365;28;20035;-74
2023/05/26 05:56:51;;;;;;;8.80;6.60;;;;;;;;;;5062643;28;20022;-76
2023/05/26 05:59:17;;;;;;;10.43;6.90;;;;;;;;;;5065450;28;20021;-75
2023/05/26 06:01:43;;;;;;;8.25;6.93;;;;;;;;;;5063958;28;20053;-75
2023/05/26 06:04:09;;;;;;;8.93;6.90;;;;;;;;;;5063798;28;20077;-75
2023/05/26 06:06:36;;;;;;;8.75;7.20;;;;;;;;;;5062022;28;20067;-74
2023/05/26 06:09:02;;;;;;;7.97;6.65;;;;;;;;;;5059529;28;20033;-74
2023/05/26 06:11:28;;;;;;;8.18;6.55;;;;;;;;;;5064758;28;20507;-73
2023/05/26 06:13:55;;;;;;;8.38;7.13;;;;;;;;;;5063465;28;20640;-73
2023/05/26 06:16:21;;;;;;;8.38;6.50;;;;;;;;;;5062469;28;20059;-74
2023/05/26 06:18:47;;;;;;;12.13;7.03;;;;;;;;;;5062375;28;20028;-74
2023/05/26 06:21:13;;;;;;;7.97;6.80;;;;;;;;;;5063978;28;20024;-73
2023/05/26 06:23:39;;;;;;;9.05;6.43;;;;;;;;;;5063524;28;20500;-74
2023/05/26 06:26:06;;;;;;;9.13;7.13;;;;;;;;;;5065625;28;20594;-74
2023/05/26 06:28:32;;;;;;;12.32;8.25;;;;;;;;;;5062374;28;20485;-74
2023/05/26 06:30:58;;;;;;;12.73;7.97;;;;;;;;;;5058615;28;20456;-73
2023/05/26 06:33:24;;;;;;;9.95;8.45;;;;;;;;;;5063445;28;20032;-73
2023/05/26 06:35:50;;;;;;;10.07;7.68;;;;;;;;;;5065342;28;20019;-73
2023/05/26 06:38:16;;;;;;;13.50;8.50;;;;;;;;;;5065073;28;20036;-73
2023/05/26 06:40:43;;;;;;;14.40;8.98;;;;;;;;;;5065481;28;20021;-73
2023/05/26 06:43:09;;;;;;;12.70;9.43;;;;;;;;;;5062498;28;20081;-74
2023/05/26 06:45:35;;;;;;;14.18;8.52;;;;;;;;;;5064806;28;20372;-73
2023/05/26 06:48:01;;;;;;;12.45;8.40;;;;;;;;;;5063647;28;20036;-73
2023/05/26 06:50:27;;;;;;;13.68;8.73;;;;;;;;;;5060582;28;20058;-73
2023/05/26 06:52:53;;;;;;;13.77;9.13;;;;;;;;;;5060093;28;20033;-74
2023/05/26 06:55:19;;;;;;;11.30;8.88;;;;;;;;;;5064918;28;20024;-73
2023/05/26 06:57:46;;;;;;;12.45;8.75;;;;;;;;;;5062201;28;20024;-73
2023/05/26 07:00:12;;;;;;;10.25;8.52;;;;;;;;;;5064591;28;20023;-74
2023/05/26 07:02:40;;;;;;;10.68;8.02;;;;;;;;;;5061174;28;20067;-73
2023/05/26 07:05:08;;;;;;;11.98;8.48;;;;;;;;;;5063738;28;20028;-75
2023/05/26 07:07:34;;;;;;;10.43;7.97;;;;;;;;;;5055850;28;20041;-73
2023/05/26 07:10:00;;;;;;;10.57;7.93;;;;;;;;;;5064730;28;20094;-73
2023/05/26 07:12:26;;;;;;;11.82;7.22;;;;;;;;;;5063374;28;20027;-74
2023/05/26 07:14:52;;;;;;;12.35;7.72;;;;;;;;;;5064059;28;20025;-74
2023/05/26 07:17:19;;;;;;;8.80;7.90;;;;;;;;;;5062921;28;20028;-73
2023/05/26 07:19:45;;;;;;;11.30;7.80;;;;;;;;;;5062191;28;20035;-74
2023/05/26 07:22:11;;;;;;;7.60;6.80;;;;;;;;;;5059564;28;20533;-74
2023/05/26 07:24:38;;;;;;;8.57;6.80;;;;;;;;;;5064587;28;20024;-73
2023/05/26 07:27:04;;;;;;;9.52;6.80;;;;;;;;;;5061094;28;20020;-74
2023/05/26 07:29:30;;;;;;;10.20;7.15;;;;;;;;;;5063801;28;20040;-74
2023/05/26 07:31:56;;;;;;;15.10;7.43;;;;;;;;;;5062886;28;20051;-73
2023/05/26 07:34:23;;;;;;;11.20;7.15;;;;;;;;;;5063317;28;20611;-74
2023/05/26 07:36:49;;;;;;;11.00;7.03;;;;;;;;;;5059997;28;20059;-73
2023/05/26 07:39:15;;;;;;;11.65;8.43;;;;;;;;;;5061783;28;20540;-73
2023/05/26 07:41:41;;;;;;;10.82;7.88;;;;;;;;;;5062172;28;20059;-73
2023/05/26 07:44:07;;;;;;;12.10;8.50;;;;;;;;;;5060405;28;20034;-73
2023/05/26 07:46:34;;;;;;;9.48;8.45;;;;;;;;;;5060283;28;20160;-74
2023/05/26 07:49:00;;;;;;;8.65;6.78;;;;;;;;;;5060866;28;20024;-76
2023/05/26 07:51:26;;;;;;;10.45;7.78;;;;;;;;;;5064207;28;20099;-74
2023/05/26 07:53:52;;;;;;;9.00;8.10;;;;;;;;;;5061763;28;20472;-73
2023/05/26 07:56:18;;;;;;;11.05;8.55;;;;;;;;;;5064595;28;20070;-73
2023/05/26 07:58:44;;;;;;;11.13;8.80;;;;;;;;;;5058057;28;20025;-73
2023/05/26 08:01:11;;;;;;;11.52;8.60;;;;;;;;;;5063955;28;20043;-74
2023/05/26 08:03:37;;;;;;;10.80;8.05;;;;;;;;;;5060708;28;20485;-74
2023/05/26 08:06:03;;;;;;;9.63;7.97;;;;;;;;;;5067436;28;20509;-74
2023/05/26 08:08:30;;;;;;;8.73;7.63;;;;;;;;;;5061513;28;20055;-73
2023/05/26 08:10:56;;;;;;;8.68;7.50;;;;;;;;;;5065201;28;20111;-74
2023/05/26 08:13:22;;;;;;;9.18;7.03;;;;;;;;;;5061913;28;20036;-74
2023/05/26 08:15:48;;;;;;;8.10;7.18;;;;;;;;;;5060982;28;20026;-75
2023/05/26 08:18:15;;;;;;;10.43;7.38;;;;;;;;;;5058643;28;20099;-75
2023/05/26 08:20:41;;;;;;;7.53;6.82;;;;;;;;;;5062708;28;20499;-83
2023/05/26 08:23:08;;;;;;;8.57;7.35;;;;;;;;;;5059689;28;20029;-74
2023/05/26 08:25:34;;;;;;;9.65;7.65;;;;;;;;;;5061207;28;20025;-77
2023/05/26 08:28:00;;;;;;;8.90;7.70;;;;;;;;;;5058987;28;20039;-77
2023/05/26 08:30:27;;;;;;;11.60;8.38;;;;;;;;;;5060182;28;20017;-76
2023/05/26 08:32:53;;;;;;;11.23;7.38;;;;;;;;;;5060901;28;20476;-75
2023/05/26 08:35:19;;;;;;;9.63;7.32;;;;;;;;;;5065513;28;20036;-78
2023/05/26 08:37:45;;;;;;;9.45;7.97;;;;;;;;;;5060301;28;20123;-78
2023/05/26 08:40:12;;;;;;;10.35;7.70;;;;;;;;;;5062822;28;20031;-76
2023/05/26 08:42:42;;;;;;;9.73;7.32;;;;;;;;;;5060663;28;20028;-73
2023/05/26 08:45:08;;;;;;;14.25;8.55;;;;;;;;;;5061759;28;20039;-77
2023/05/26 08:47:38;;;;;;;9.57;7.45;;;;;;;;;;5063869;28;20028;-77
2023/05/26 08:50:05;;;;;;;8.52;7.50;;;;;;;;;;5065870;28;20040;-79
2023/05/26 08:52:32;;;;;;;9.40;7.18;;;;;;;;;;5063649;28;20029;-77
2023/05/26 08:54:58;;;;;;;10.57;7.97;;;;;;;;;;5062738;28;20016;-77
2023/05/26 08:57:26;;;;;;;13.55;8.13;;;;;;;;;;5062940;28;20514;-76
2023/05/26 08:59:53;;;;;;;9.30;8.30;;;;;;;;;;5066211;28;20024;-75
2023/05/26 09:02:19;;;;;;;10.63;7.53;;;;;;;;;;5064421;28;20116;-74
2023/05/26 09:04:46;;;;;;;9.18;7.78;;;;;;;;;;5066766;28;20028;-77
2023/05/26 09:07:13;;;;;;;9.55;7.78;;;;;;;;;;5062066;28;20029;-76
2023/05/26 09:09:39;;;;;;;8.35;7.35;;;;;;;;;;5066617;28;20024;-77
2023/05/26 09:12:10;;;;;;;9.88;7.32;;;;;;;;;;5064553;28;20451;-76
2023/05/26 09:14:36;;;;;;;13.80;8.53;;;;;;;;;;5064115;28;20161;-75
2023/05/26 09:17:02;;;;;;;11.70;7.93;;;;;;;;;;5062806;28;20032;-77
2023/05/26 09:19:29;;;;;;;13.77;7.95;;;;;;;;;;5065983;28;20039;-78
2023/05/26 09:21:55;;;;;;;17.23;9.60;;;;;;;;;;5066300;28;20034;-78
2023/05/26 09:24:27;;;;;;;10.65;7.30;;;;;;;;;;5072079;28;20037;-77
2023/05/26 09:26:53;;;;;;;8.70;7.50;;;;;;;;;;5068149;28;20469;-77
2023/05/26 09:29:19;;;;;;;8.65;7.43;;;;;;;;;;5067710;28;20432;-77
2023/05/26 09:31:49;;;;;;;9.85;8.05;;;;;;;;;;5064787;28;20025;-76
2023/05/26 09:34:23;;;;;;;10.43;6.90;;;;;;;;;;5068117;28;20029;-77
2023/05/26 09:36:50;;;;;;;9.02;7.10;;;;;;;;;;5061307;28;20028;-77
2023/05/26 09:39:16;;;;;;;14.38;9.40;;;;;;;;;;5063942;28;20146;-77
2023/05/26 09:41:43;;;;;;;9.48;7.93;;;;;;;;;;5062851;28;20575;-75
2023/05/26 09:44:14;;;;;;;8.85;7.43;;;;;;;;;;5060477;28;20029;-78
2023/05/26 09:46:41;;;;;;;8.83;6.80;;;;;;;;;;5069944;28;20020;-79
2023/05/26 09:49:17;;;;;;;9.25;7.20;;;;;;;;;;5063887;28;20094;-77
2023/05/26 09:51:45;;;;;;;10.35;7.35;;;;;;;;;;5063266;28;20139;-78
2023/05/26 09:54:12;;;;;;;10.40;7.10;;;;;;;;;;5069941;28;20655;-77
2023/05/26 09:56:45;;;;;;;10.88;7.78;;;;;;;;;;5065495;28;20103;-79
2023/05/26 09:59:14;;;;;;;8.40;7.30;;;;;;;;;;5067607;28;20031;-78
2023/05/26 10:01:41;;;;;;;8.90;7.18;;;;;;;;;;5064742;28;20127;-79
2023/05/26 10:04:08;;;;;;;9.88;7.55;;;;;;;;;;5057446;28;20028;-79
2023/05/26 10:06:36;;;;;;;15.95;7.95;;;;;;;;;;5071842;28;20035;-78
2023/05/26 10:09:03;;;;;;;12.00;8.25;;;;;;;;;;5063147;28;20216;-78
2023/05/26 10:11:30;;;;;;;13.43;7.40;;;;;;;;;;5064505;28;20020;-77
2023/05/26 10:13:57;;;;;;;11.85;7.55;;;;;;;;;;5064762;28;20043;-77
2023/05/26 10:16:23;;;;;;;12.43;7.05;;;;;;;;;;5063016;28;20032;-79
2023/05/26 10:18:50;;;;;;;8.07;6.72;;;;;;;;;;5061119;28;20549;-74
2023/05/26 10:21:18;;;;;;;9.07;6.25;;;;;;;;;;5065247;28;20033;-77
2023/05/26 10:23:50;;;;;;;9.90;6.80;;;;;;;;;;5063346;28;20013;-79
2023/05/26 10:26:19;;;;;;;6.30;5.70;;;;;;;;;;5065330;28;20081;-75
2023/05/26 10:28:52;;;;;;;8.95;7.30;;;;;;;;;;5064914;28;20055;-77
2023/05/26 10:31:31;;;;;;;10.43;6.85;;;;;;;;;;5063967;28;20108;-75
2023/05/26 10:33:58;;;;;;;7.57;6.10;;;;;;;;;;5060391;28;20452;-78
2023/05/26 10:36:24;;;;;;;8.35;6.85;;;;;;;;;;5064983;28;20041;-78
2023/05/26 10:38:53;;;;;;;7.70;6.85;;;;;;;;;;5062549;28;20031;-79
2023/05/26 10:41:41;;;;;;;11.63;7.38;;;;;;;;;;5062925;28;20107;-79
2023/05/26 10:44:27;;;;;;;8.73;7.18;;;;;;;;;;5061420;28;20029;-78
2023/05/26 10:47:16;;;;;;;8.50;7.38;;;;;;;;;;5064883;28;20534;-80
2023/05/26 10:49:51;;;;;;;8.05;7.25;;;;;;;;;;5050826;28;20071;-76
2023/05/26 10:52:17;;;;;;;9.77;7.07;;;;;;;;;;5063816;28;20051;-79
2023/05/26 10:54:44;;;;;;;8.43;7.10;;;;;;;;;;5071520;28;20377;-77
2023/05/26 10:57:30;;;;;;;7.60;6.90;;;;;;;;;;5062656;28;20109;-80
2023/05/26 10:59:57;;;;;;;10.52;7.32;;;;;;;;;;5062171;28;20032;-79
2023/05/26 11:02:23;;;;;;;11.70;7.50;;;;;;;;;;5062998;28;20053;-80
2023/05/26 11:04:50;;;;;;;8.00;7.20;;;;;;;;;;5064383;28;20032;-80
2023/05/26 11:07:23;;;;;;;12.05;7.05;;;;;;;;;;5062780;28;20085;-75
2023/05/26 11:09:56;;;;;;;8.05;7.25;;;;;;;;;;5063123;28;20102;-79
2023/05/26 11:12:23;;;;;;;9.90;7.25;;;;;;;;;;5056953;28;20008;-80
2023/05/26 11:14:49;;;;;;;9.65;7.15;;;;;;;;;;5064233;28;20032;-79
2023/05/26 11:17:17;;;;;;;11.13;8.32;;;;;;;;;;5062513;28;20099;-79
2023/05/26 11:19:53;;;;;;;8.05;7.30;;;;;;;;;;5063724;28;20086;-76
2023/05/26 11:22:21;;;;;;;11.13;7.78;;;;;;;;;;5061100;28;20115;-74
2023/05/26 11:24:52;;;;;;;11.23;7.20;;;;;;;;;;5062963;28;20389;-77
2023/05/26 11:27:18;;;;;;;8.10;7.30;;;;;;;;;;5063278;28;20112;-75
2023/05/26 11:29:49;;;;;;;12.75;7.78;;;;;;;;;;5061601;28;20044;-76
2023/05/26 11:32:15;;;;;;;7.63;6.82;;;;;;;;;;5062604;28;20056;-76
2023/05/26 11:34:41;;;;;;;9.60;6.90;;;;;;;;;;5060007;28;20048;-78
2023/05/26 11:37:08;;;;;;;9.23;7.90;;;;;;;;;;5062285;28;20032;-75
2023/05/26 11:39:35;;;;;;;9.35;8.02;;;;;;;;;;5061595;28;20028;-77
2023/05/26 11:42:07;;;;;;;9.13;7.60;;;;;;;;;;5061477;28;20070;-79
2023/05/26 11:44:34;;;;;;;12.40;8.10;;;;;;;;;;5058688;28;20861;-77
2023/05/26 11:47:00;;;;;;;7.55;6.60;;;;;;;;;;5065347;28;20083;-79
2023/05/26 11:49:26;;;;;;;8.57;7.28;;;;;;;;;;5058914;28;20048;-78
2023/05/26 11:51:52;;;;;;;7.97;6.80;;;;;;;;;;5062017;28;20123;-78
2023/05/26 11:54:19;;;;;;;9.93;7.45;;;;;;;;;;5066501;28;20024;-76
2023/05/26 11:56:46;;;;;;;9.23;7.20;;;;;;;;;;5060544;28;20044;-76
2023/05/26 11:59:19;;;;;;;7.95;7.15;;;;;;;;;;5063314;28;20017;-79
2023/05/26 12:01:46;;;;;;;7.70;6.60;;;;;;;;;;5061547;28;20056;-77
2023/05/26 12:04:12;;;;;;;8.05;6.18;;;;;;;;;;5063778;28;20111;-77
2023/05/26 12:06:45;;;;;;;9.60;6.82;;;;;;;;;;5060851;28;20016;-78
2023/05/26 12:09:22;;;;;;;7.75;6.88;;;;;;;;;;5059996;28;20127;-79
2023/05/26 12:11:49;;;;;;;9.23;7.38;;;;;;;;;;5058414;28;20095;-75
2023/05/26 12:14:16;;;;;;;8.60;7.47;;;;;;;;;;5061418;28;20041;-77
2023/05/26 12:16:46;;;;;;;9.90;7.53;;;;;;;;;;5061254;28;20428;-74
2023/05/26 12:19:22;;;;;;;10.75;7.80;;;;;;;;;;5063067;28;20028;-76
2023/05/26 12:21:49;;;;;;;10.52;7.72;;;;;;;;;;5059576;28;20020;-76
2023/05/26 12:24:29;;;;;;;9.60;7.60;;;;;;;;;;5061469;28;20385;-78
2023/05/26 12:26:55;;;;;;;8.38;7.47;;;;;;;;;;5058516;28;20025;-77
2023/05/26 12:29:21;;;;;;;9.77;8.77;;;;;;;;;;5057977;28;20086;-77
2023/05/26 12:31:49;;;;;;;10.98;8.63;;;;;;;;;;5065758;28;20521;-78
2023/05/26 12:34:16;;;;;;;19.90;8.00;;;;;;;;;;5062964;28;20042;-75
2023/05/26 12:36:42;;;;;;;13.32;7.90;;;;;;;;;;5059750;28;20516;-75
2023/05/26 12:39:08;;;;;;;8.80;7.72;;;;;;;;;;5062961;28;20552;-78
2023/05/26 12:41:35;;;;;;;8.60;7.07;;;;;;;;;;5059836;28;20029;-77
2023/05/26 12:44:02;;;;;;;8.65;7.57;;;;;;;;;;5060966;28;20028;-77
2023/05/26 12:46:29;;;;;;;9.15;6.40;;;;;;;;;;5057525;28;20423;-80
2023/05/26 12:48:55;;;;;;;17.33;8.18;;;;;;;;;;5065707;28;20131;-75
2023/05/26 12:51:21;;;;;;;11.50;7.68;;;;;;;;;;5062751;28;20017;-74
2023/05/26 12:53:48;;;;;;;10.95;8.20;;;;;;;;;;5066022;28;20051;-75
2023/05/26 12:56:14;;;;;;;10.35;7.97;;;;;;;;;;5057216;28;20029;-74
2023/05/26 12:58:40;;;;;;;11.52;7.80;;;;;;;;;;5056667;28;20108;-75
2023/05/26 13:01:10;;;;;;;9.18;8.13;;;;;;;;;;5061134;28;20036;-76
2023/05/26 13:03:37;;;;;;;11.02;8.15;;;;;;;;;;5061288;28;20030;-74
2023/05/26 13:06:04;;;;;;;7.88;7.07;;;;;;;;;;5061862;28;20105;-74
2023/05/26 13:08:31;;;;;;;9.48;7.68;;;;;;;;;;5060793;28;20074;-74
2023/05/26 13:10:58;;;;;;;10.52;7.40;;;;;;;;;;5061352;28;20621;-74
2023/05/26 13:13:24;;;;;;;12.35;8.10;;;;;;;;;;5062899;28;20412;-74
2023/05/26 13:15:50;;;;;;;10.98;8.43;;;;;;;;;;5062674;28;20036;-74
2023/05/26 13:18:17;;;;;;;10.23;8.40;;;;;;;;;;5062886;28;20039;-74
2023/05/26 13:20:43;;;;;;;9.88;7.32;;;;;;;;;;5065397;28;20586;-75
2023/05/26 13:23:09;;;;;;;10.43;7.80;;;;;;;;;;5062121;28;20120;-75
2023/05/26 13:25:35;;;;;;;13.80;7.65;;;;;;;;;;5064646;28;20063;-74
2023/05/26 13:28:01;;;;;;;11.50;7.22;;;;;;;;;;5064511;28;20025;-75
2023/05/26 13:30:27;;;;;;;8.30;7.40;;;;;;;;;;5065976;28;20100;-74
2023/05/26 13:32:55;;;;;;;9.23;7.47;;;;;;;;;;5065306;28;20159;-74
2023/05/26 13:35:22;;;;;;;8.73;6.80;;;;;;;;;;5064442;28;20032;-74
2023/05/26 13:37:49;;;;;;;11.57;6.10;;;;;;;;;;5063077;28;20457;-74
2023/05/26 13:40:16;;;;;;;8.75;6.75;;;;;;;;;;5060420;28;20042;-74
2023/05/26 13:42:43;;;;;;;7.60;6.45;;;;;;;;;;5063388;28;20096;-74
2023/05/26 13:45:09;;;;;;;8.05;6.40;;;;;;;;;;5066276;28;20032;-74
2023/05/26 13:47:36;;;;;;;8.77;6.63;;;;;;;;;;5053590;28;20020;-75
2023/05/26 13:50:03;;;;;;;10.32;7.47;;;;;;;;;;5065394;28;20562;-73
2023/05/26 13:52:31;;;;;;;7.10;6.38;;;;;;;;;;5071793;28;20017;-74
2023/05/26 13:54:57;;;;;;;8.75;5.93;;;;;;;;;;5065588;28;20093;-74
2023/05/26 13:57:24;;;;;;;6.30;5.70;;;;;;;;;;5062366;28;20020;-74
2023/05/26 13:59:50;;;;;;;8.55;6.32;;;;;;;;;;5066168;28;20027;-74
2023/05/26 14:02:17;;;;;;;10.75;7.22;;;;;;;;;;5060482;28;20072;-74
2023/05/26 14:04:43;;;;;;;7.93;6.45;;;;;;;;;;5060330;28;20054;-74
2023/05/26 14:07:10;;;;;;;8.65;6.43;;;;;;;;;;5063087;28;20431;-74
2023/05/26 14:09:37;;;;;;;8.23;7.00;;;;;;;;;;5060232;28;20029;-74
2023/05/26 14:12:03;;;;;;;7.40;5.95;;;;;;;;;;5060074;28;20020;-74
2023/05/26 14:14:30;;;;;;;10.23;6.22;;;;;;;;;;5065328;28;20021;-74
2023/05/26 14:16:57;;;;;;;11.70;7.00;;;;;;;;;;5064032;28;20021;-74
2023/05/26 14:19:23;;;;;;;8.13;6.38;;;;;;;;;;5064140;28;20021;-74
2023/05/26 14:21:50;;;;;;;8.88;5.88;;;;;;;;;;5063320;28;20588;-74
2023/05/26 14:24:16;;;;;;;7.22;6.45;;;;;;;;;;5063086;28;20135;-74
2023/05/26 14:26:42;;;;;;;10.07;6.30;;;;;;;;;;5063656;28;20016;-74
2023/05/26 14:29:09;;;;;;;8.73;6.35;;;;;;;;;;5062993;28;20113;-74
2023/05/26 14:31:35;;;;;;;8.32;5.70;;;;;;;;;;5069903;28;20027;-74
2023/05/26 14:34:02;;;;;;;8.02;5.53;;;;;;;;;;5066121;28;20024;-74
2023/05/26 14:36:28;;;;;;;11.93;6.30;;;;;;;;;;5072073;28;20077;-74